Portada
METAR-TAF:

METAR-TAF

Aeroports :

Rota, Illes Mariannes, Estats Units d'Amèrica

latitud: 14-11N, longitud: 145-15E, altitud: 185 m

Observació

L'informe es va fer fa 2 hores i 57 minuts, a les 07:50 UTC
Vent 12 kt del Est
Temperatura 28°C
Humitat 79%
Pressió 1012 hPa
Visibilitat: 11.3 km
Núvols disperses a una alçada de 1500 ft

METAR: PGRO 250750Z 08012KT 7SM SCT015 28/24 A2989 RMK LAST

Hora: 20:47 (10:47 UTC)

Pronòstic

L'informe es va fer fa 5 hores i 27 minuts, a les 05:20 UTC
Pronòstic vàlid del 25 a les 06 UTC al 26 a les 06 UTC
Vent 13 kt del Est
Visibilitat: 10 km
Núvols disperses a una alçada de 1600 ft

TAF: PGRO 250520Z 2506/2606 09013KT P6SM SCT016

Observacions i pronòstics meteorològics de més de 4000 aeroports (METAR i TAF).

Les estacions disponibles són els punts grocs i vermells al mapa.

Posi el ratolí al punt desitjat per veure el nom de l'estació.

Feu clic per veure les observacions i els pronòstics meteorològics.

Per canviar el mapa: feu clic els botons verds amb una creu de color negre per apropar; al botó verd amb un guió per allunyar la imatge; o en les fletxes verdes per a mapes adjacents.


METAR-TAF: